createdAt,value
2024-01-16T00:01:07.456Z,78172.81
2024-01-16T00:03:34.232Z,78166.75
2024-01-16T00:06:02.006Z,78164.72
2024-01-16T00:08:28.633Z,78166.75
2024-01-16T00:10:55.309Z,78158.66
2024-01-16T00:13:21.865Z,78154.63
2024-01-16T00:15:48.689Z,78136.44
2024-01-16T00:18:15.463Z,78130.41
2024-01-16T00:20:42.222Z,78114.22
2024-01-16T00:23:08.935Z,78112.22
2024-01-16T00:25:35.696Z,78120.28
2024-01-16T00:28:03.111Z,78114.22
2024-01-16T00:30:30.706Z,78116.25
2024-01-16T00:32:57.368Z,78122.31
2024-01-16T00:35:24.122Z,78124.34
2024-01-16T00:37:50.866Z,78134.44
2024-01-16T00:40:17.482Z,78148.56
2024-01-16T00:42:44.313Z,78160.69
2024-01-16T00:45:10.963Z,78174.81
2024-01-16T00:47:37.716Z,78176.84
2024-01-16T00:50:04.739Z,78188.97
2024-01-16T00:52:31.344Z,78193.00
2024-01-16T00:54:57.947Z,78195.03
2024-01-16T00:57:24.499Z,78195.03
2024-01-16T00:59:51.196Z,78205.13
2024-01-16T01:02:17.956Z,78205.13
2024-01-16T01:04:44.669Z,78213.19
2024-01-16T01:07:14.496Z,78211.19
2024-01-16T01:09:41.493Z,78205.13
2024-01-16T01:12:08.892Z,78209.16
2024-01-16T01:14:35.652Z,78211.19
2024-01-16T01:17:02.612Z,78211.19
2024-01-16T01:19:29.437Z,78209.16
2024-01-16T01:21:55.978Z,78207.13
2024-01-16T01:24:22.527Z,78213.19
2024-01-16T01:26:49.166Z,78233.41
2024-01-16T01:29:15.921Z,78233.41
2024-01-16T01:31:46.871Z,78237.44
2024-01-16T01:34:13.564Z,78239.44
2024-01-16T01:36:40.220Z,78237.44
2024-01-16T01:39:06.900Z,78239.44
2024-01-16T01:41:33.539Z,78239.44
2024-01-16T01:44:00.322Z,78239.44
2024-01-16T01:46:27.015Z,78247.53
2024-01-16T01:48:53.700Z,78253.59
2024-01-16T01:51:20.696Z,78257.63
2024-01-16T01:53:49.532Z,78263.69
2024-01-16T01:56:17.058Z,78263.69
2024-01-16T01:58:55.595Z,78273.78
2024-01-16T02:01:22.994Z,78269.75
2024-01-16T02:03:50.879Z,78285.91
2024-01-16T02:06:17.917Z,78285.91
2024-01-16T02:08:45.983Z,78289.94
2024-01-16T02:11:13.279Z,78294.00
2024-01-16T02:13:39.910Z,78296.00
2024-01-16T02:16:07.191Z,78273.78
2024-01-16T02:18:33.961Z,78247.53
2024-01-16T02:21:06.884Z,78227.34
2024-01-16T02:23:34.529Z,78203.09
2024-01-16T02:26:01.241Z,78190.97
2024-01-16T02:28:27.791Z,78184.94
2024-01-16T02:30:54.538Z,78174.81
2024-01-16T02:33:21.277Z,78166.75
2024-01-16T02:35:47.971Z,78170.78
2024-01-16T02:38:14.792Z,78166.75
2024-01-16T02:40:41.588Z,78170.78
2024-01-16T02:43:08.497Z,78174.81
2024-01-16T02:45:35.224Z,78176.84
2024-01-16T02:48:02.556Z,78180.88
2024-01-16T02:50:29.523Z,78180.88
2024-01-16T02:52:56.235Z,78180.88
2024-01-16T02:55:22.812Z,78182.91
2024-01-16T02:57:49.338Z,78182.91
2024-01-16T03:00:16.135Z,78190.97
2024-01-16T03:02:42.885Z,78193.00
2024-01-16T03:05:10.505Z,78199.06
2024-01-16T03:07:37.201Z,78199.06
2024-01-16T03:10:04.448Z,78188.97
2024-01-16T03:12:31.048Z,78201.09
2024-01-16T03:14:57.774Z,78201.09
2024-01-16T03:17:24.556Z,78201.09
2024-01-16T03:19:51.129Z,78193.00
2024-01-16T03:22:17.679Z,78184.94
2024-01-16T03:24:44.274Z,78182.91
2024-01-16T03:27:10.851Z,78180.88
2024-01-16T03:29:37.567Z,78178.88
2024-01-16T03:32:04.555Z,78164.72
2024-01-16T03:34:32.530Z,78166.75
2024-01-16T03:36:59.205Z,78170.78
2024-01-16T03:39:25.832Z,78174.81
2024-01-16T03:41:53.403Z,78174.81
2024-01-16T03:44:20.067Z,78172.81
2024-01-16T03:46:46.830Z,78154.63
2024-01-16T03:49:13.468Z,78150.59
2024-01-16T03:51:40.065Z,78150.59
2024-01-16T03:54:06.672Z,78142.50
2024-01-16T03:56:33.296Z,78132.41
2024-01-16T03:59:00.104Z,78120.28
2024-01-16T04:01:38.259Z,78110.19
2024-01-16T04:04:07.710Z,78096.06
2024-01-16T04:06:34.924Z,78090.00
2024-01-16T04:09:01.982Z,78085.97
2024-01-16T04:11:28.668Z,78085.97
2024-01-16T04:13:55.253Z,78083.94
2024-01-16T04:16:21.922Z,78079.91
2024-01-16T04:18:48.700Z,78085.97
2024-01-16T04:21:18.000Z,78087.97
2024-01-16T04:23:46.347Z,78098.06
2024-01-16T04:26:12.997Z,78100.09
2024-01-16T04:28:39.696Z,78100.09
2024-01-16T04:31:06.851Z,78104.13
2024-01-16T04:33:33.706Z,78104.13
2024-01-16T04:36:00.449Z,78106.16
2024-01-16T04:38:27.312Z,78100.09
2024-01-16T04:40:53.953Z,78100.09
2024-01-16T04:43:20.495Z,78092.03
2024-01-16T04:45:47.442Z,78094.03
2024-01-16T04:48:14.201Z,78100.09
2024-01-16T04:50:40.972Z,78096.06
2024-01-16T04:53:07.923Z,78096.06
2024-01-16T04:55:34.527Z,78085.97
2024-01-16T04:58:01.422Z,78077.88
2024-01-16T05:00:28.284Z,78065.75
2024-01-16T05:02:55.159Z,78061.72
2024-01-16T05:05:21.972Z,78051.63
2024-01-16T05:07:48.688Z,78047.59
2024-01-16T05:10:15.302Z,78037.50
2024-01-16T05:12:42.365Z,78037.50
2024-01-16T05:15:10.052Z,78033.44
2024-01-16T05:17:36.708Z,78029.41
2024-01-16T05:20:06.671Z,78017.28
2024-01-16T05:22:33.383Z,78015.28
2024-01-16T05:25:01.160Z,77997.09
2024-01-16T05:27:27.760Z,77993.06
2024-01-16T05:29:54.481Z,77989.03
2024-01-16T05:32:21.208Z,77980.94
2024-01-16T05:34:47.785Z,77993.06
2024-01-16T05:37:14.951Z,77989.03
2024-01-16T05:39:41.600Z,77987.00
2024-01-16T05:42:08.341Z,77984.97
2024-01-16T05:44:34.972Z,77989.03
2024-01-16T05:47:01.639Z,77978.91
2024-01-16T05:49:28.329Z,77974.88
2024-01-16T05:51:54.960Z,77974.88
2024-01-16T05:54:21.530Z,77976.91
2024-01-16T05:56:48.182Z,77972.88
2024-01-16T05:59:14.905Z,77964.78
2024-01-16T06:01:41.478Z,77970.84
2024-01-16T06:04:08.179Z,77970.84
2024-01-16T06:06:34.977Z,77974.88
2024-01-16T06:09:06.873Z,77984.97
2024-01-16T06:11:34.267Z,77982.97
2024-01-16T06:14:00.908Z,77991.03
2024-01-16T06:16:27.751Z,77991.03
2024-01-16T06:18:54.489Z,78005.19
2024-01-16T06:21:23.237Z,78013.25
2024-01-16T06:23:51.366Z,78011.22
2024-01-16T06:26:18.627Z,78019.31
2024-01-16T06:28:45.488Z,78015.28
2024-01-16T06:31:12.967Z,78013.25
2024-01-16T06:33:39.860Z,78011.22
2024-01-16T06:36:07.360Z,78011.22
2024-01-16T06:38:34.112Z,78007.19
2024-01-16T06:41:01.768Z,78011.22
2024-01-16T06:43:28.729Z,78017.28
2024-01-16T06:45:55.673Z,78019.31
2024-01-16T06:48:22.659Z,78021.34
2024-01-16T06:50:49.517Z,78017.28
2024-01-16T06:53:17.381Z,78019.31
2024-01-16T06:55:44.287Z,78009.22
2024-01-16T06:58:11.368Z,78003.16
2024-01-16T07:00:38.139Z,77999.13
2024-01-16T07:03:05.326Z,78005.19
2024-01-16T07:05:32.023Z,77995.06
2024-01-16T07:07:59.550Z,77997.09
2024-01-16T07:10:26.306Z,77997.09
2024-01-16T07:12:53.028Z,77987.00
2024-01-16T07:15:19.780Z,77989.03
2024-01-16T07:17:46.997Z,77995.06
2024-01-16T07:20:13.922Z,78007.19
2024-01-16T07:22:40.722Z,78009.22
2024-01-16T07:25:08.302Z,78007.19
2024-01-16T07:27:35.623Z,78009.22
2024-01-16T07:30:02.736Z,78019.31
2024-01-16T07:32:32.290Z,78015.28
2024-01-16T07:34:59.171Z,78015.28
2024-01-16T07:37:25.829Z,78017.28
2024-01-16T07:39:52.449Z,78015.28
2024-01-16T07:42:19.023Z,78017.28
2024-01-16T07:44:45.726Z,78017.28
2024-01-16T07:47:12.506Z,78023.34
2024-01-16T07:49:39.115Z,78023.34
2024-01-16T07:52:05.866Z,78029.41
2024-01-16T07:54:32.595Z,78033.44
2024-01-16T07:56:59.337Z,78029.41
2024-01-16T07:59:27.520Z,78025.38
2024-01-16T08:01:54.705Z,78013.25
2024-01-16T08:04:21.401Z,78011.22
2024-01-16T08:06:48.518Z,78011.22
2024-01-16T08:09:15.409Z,78015.28
2024-01-16T08:11:42.067Z,78011.22
2024-01-16T08:14:09.551Z,78007.19
2024-01-16T08:16:36.484Z,78011.22
2024-01-16T08:19:04.707Z,78009.22
2024-01-16T08:21:31.660Z,78015.28
2024-01-16T08:23:58.272Z,78021.34
2024-01-16T08:26:25.282Z,78021.34
2024-01-16T08:28:52.546Z,78013.25
2024-01-16T08:31:22.124Z,78011.22
2024-01-16T08:33:51.377Z,78007.19
2024-01-16T08:36:19.956Z,78013.25
2024-01-16T08:38:46.688Z,78009.22
2024-01-16T08:41:13.390Z,78005.19
2024-01-16T08:43:39.907Z,77999.13
2024-01-16T08:46:06.557Z,77997.09
2024-01-16T08:48:33.388Z,77987.00
2024-01-16T08:51:02.526Z,77982.97
2024-01-16T08:53:29.229Z,77978.91
2024-01-16T08:55:55.770Z,77982.97
2024-01-16T08:58:22.366Z,77978.91
2024-01-16T09:00:49.020Z,77980.94
2024-01-16T09:03:15.596Z,77984.97
2024-01-16T09:05:42.353Z,77984.97
2024-01-16T09:08:11.880Z,77997.09
2024-01-16T09:10:40.173Z,77995.06
2024-01-16T09:13:06.838Z,77987.00
2024-01-16T09:15:33.564Z,77984.97
2024-01-16T09:18:00.194Z,77972.88
2024-01-16T09:20:27.105Z,77960.75
2024-01-16T09:22:53.658Z,77958.72
2024-01-16T09:25:21.113Z,77954.69
2024-01-16T09:27:47.731Z,77944.59
2024-01-16T09:30:14.453Z,77924.41
2024-01-16T09:32:41.167Z,77934.50
2024-01-16T09:35:10.202Z,77938.53
2024-01-16T09:37:36.945Z,77942.56
2024-01-16T09:40:06.442Z,77938.53
2024-01-16T09:42:33.331Z,77940.56
2024-01-16T09:45:01.751Z,77890.06
2024-01-16T09:47:28.499Z,77835.53
2024-01-16T09:49:55.770Z,77827.47
2024-01-16T09:52:22.391Z,77754.75
2024-01-16T09:54:49.651Z,77633.59
2024-01-16T09:57:16.332Z,77639.66
2024-01-16T09:59:43.013Z,77629.56
2024-01-16T10:02:11.649Z,77692.16
2024-01-16T10:04:38.550Z,77673.97
2024-01-16T10:07:05.945Z,77609.34
2024-01-16T10:09:32.594Z,77585.13
2024-01-16T10:12:01.371Z,77530.59
2024-01-16T10:14:29.057Z,77522.53
2024-01-16T10:16:59.682Z,77579.06
2024-01-16T10:19:39.164Z,77671.97
2024-01-16T10:22:12.820Z,77686.09
2024-01-16T10:24:39.594Z,77716.38
2024-01-16T10:27:07.308Z,77706.28
2024-01-16T10:29:43.385Z,77706.28
2024-01-16T10:32:28.631Z,77694.16
2024-01-16T10:35:05.708Z,77623.50
2024-01-16T10:37:54.458Z,77633.59
2024-01-16T10:40:25.419Z,77585.13
2024-01-16T10:43:02.426Z,77534.63
2024-01-16T10:45:29.273Z,77500.31
2024-01-16T10:48:09.593Z,77558.88
2024-01-16T10:50:38.621Z,77520.50
2024-01-16T10:53:07.141Z,77564.94
2024-01-16T10:55:43.675Z,77585.13
2024-01-16T10:58:13.809Z,77621.47
2024-01-16T11:00:40.814Z,77587.16
2024-01-16T11:03:09.245Z,77562.91
2024-01-16T11:05:37.066Z,77502.34
2024-01-16T11:08:07.353Z,77441.75
2024-01-16T11:10:34.080Z,77383.19
2024-01-16T11:13:05.913Z,77399.34
2024-01-16T11:15:32.682Z,77397.31
2024-01-16T11:18:01.142Z,77381.16
2024-01-16T11:20:47.723Z,77417.53
2024-01-16T11:23:15.382Z,77439.72
2024-01-16T11:25:41.986Z,77383.19
2024-01-16T11:28:16.887Z,77395.31
2024-01-16T11:30:45.331Z,77342.81
2024-01-16T11:33:30.675Z,77395.31
2024-01-16T11:35:57.551Z,77405.41
2024-01-16T11:38:27.812Z,77389.25
2024-01-16T11:40:55.287Z,77433.69
2024-01-16T11:43:34.566Z,77399.34
2024-01-16T11:46:02.950Z,77401.38
2024-01-16T11:48:29.769Z,77399.34
2024-01-16T11:50:56.501Z,77417.53
2024-01-16T11:53:39.366Z,77419.53
2024-01-16T11:56:11.901Z,77457.91
2024-01-16T11:59:03.533Z,77465.97
2024-01-16T12:01:30.856Z,77482.13
2024-01-16T12:04:05.973Z,77433.69
2024-01-16T12:06:33.603Z,77427.63
2024-01-16T12:09:16.406Z,77409.44
2024-01-16T12:11:46.607Z,77395.31
2024-01-16T12:14:13.741Z,77435.69
2024-01-16T12:16:40.410Z,77409.44
2024-01-16T12:19:09.342Z,77391.28
2024-01-16T12:21:40.445Z,77356.94
2024-01-16T12:24:11.052Z,77391.28
2024-01-16T12:26:40.568Z,77334.72
2024-01-16T12:29:07.265Z,77389.25
2024-01-16T12:31:33.801Z,77332.72
2024-01-16T12:34:10.719Z,77403.38
2024-01-16T12:36:38.874Z,77453.88
2024-01-16T12:39:05.662Z,77403.38
2024-01-16T12:41:42.313Z,77379.16
2024-01-16T12:44:15.745Z,77403.38
2024-01-16T12:46:44.744Z,77439.72
2024-01-16T12:49:13.078Z,77419.53
2024-01-16T12:51:39.875Z,77413.47
2024-01-16T12:54:17.118Z,77423.56
2024-01-16T12:56:44.128Z,77385.22
2024-01-16T12:59:12.746Z,77365.03
2024-01-16T13:01:47.134Z,77383.19
2024-01-16T13:04:19.408Z,77415.50
2024-01-16T13:06:47.798Z,77391.28
2024-01-16T13:09:18.259Z,77350.88
2024-01-16T13:11:52.845Z,77318.56
2024-01-16T13:14:22.614Z,77312.53
2024-01-16T13:16:53.626Z,77312.53
2024-01-16T13:19:20.977Z,77302.41
2024-01-16T13:21:48.672Z,77282.22
2024-01-16T13:24:15.270Z,77294.34
2024-01-16T13:26:42.579Z,77395.31
2024-01-16T13:29:10.341Z,77411.47
2024-01-16T13:31:37.098Z,77393.28
2024-01-16T13:34:03.965Z,77354.91
2024-01-16T13:36:46.633Z,77318.56
2024-01-16T13:39:17.865Z,77320.59
2024-01-16T13:41:44.600Z,77328.66
2024-01-16T13:44:11.193Z,77264.06
2024-01-16T13:46:53.518Z,77282.22
2024-01-16T13:49:24.886Z,77310.50
2024-01-16T13:51:52.502Z,77318.56
2024-01-16T13:54:19.168Z,77338.78
2024-01-16T13:56:59.284Z,77346.84
2024-01-16T13:59:32.840Z,77340.78
2024-01-16T14:01:59.800Z,77340.78
2024-01-16T14:04:26.405Z,77292.31
2024-01-16T14:07:09.506Z,77233.78
2024-01-16T14:09:39.535Z,77243.88
2024-01-16T14:12:09.706Z,77288.28
2024-01-16T14:14:36.933Z,77286.28
2024-01-16T14:17:03.771Z,77326.66
2024-01-16T14:19:32.269Z,77286.28
2024-01-16T14:21:59.396Z,77203.47
2024-01-16T14:24:26.182Z,77167.13
2024-01-16T14:26:52.901Z,77148.97
2024-01-16T14:29:22.417Z,77114.63
2024-01-16T14:31:50.581Z,77203.47
2024-01-16T14:34:19.017Z,77268.09
2024-01-16T14:36:47.206Z,77316.56
2024-01-16T14:39:23.219Z,77322.63
2024-01-16T14:41:50.086Z,77258.00
2024-01-16T14:44:16.923Z,77233.78
2024-01-16T14:46:46.563Z,77207.53
2024-01-16T14:49:14.869Z,77243.88
2024-01-16T14:51:41.917Z,77195.41
2024-01-16T14:54:09.092Z,77165.13
2024-01-16T14:56:35.814Z,77203.47
2024-01-16T14:59:02.470Z,77211.56
2024-01-16T15:01:29.591Z,77225.69
2024-01-16T15:03:56.317Z,77195.41
2024-01-16T15:06:23.438Z,77308.47
2024-01-16T15:08:50.181Z,77360.97
2024-01-16T15:11:18.398Z,77399.34
2024-01-16T15:13:45.977Z,77433.69
2024-01-16T15:16:12.715Z,77472.03
2024-01-16T15:18:39.530Z,77494.25
2024-01-16T15:21:06.250Z,77502.34
2024-01-16T15:23:32.904Z,77520.50
2024-01-16T15:26:04.121Z,77518.50
2024-01-16T15:28:32.774Z,77520.50
2024-01-16T15:30:59.369Z,77536.66
2024-01-16T15:33:26.130Z,77532.63
2024-01-16T15:35:52.805Z,77550.78
2024-01-16T15:38:19.708Z,77564.94
2024-01-16T15:40:46.346Z,77571.00
2024-01-16T15:43:13.003Z,77577.03
2024-01-16T15:45:39.626Z,77571.00
2024-01-16T15:48:06.591Z,77573.00
2024-01-16T15:50:33.549Z,77587.16
2024-01-16T15:53:00.515Z,77575.03
2024-01-16T15:55:27.150Z,77605.31
2024-01-16T15:57:53.778Z,77613.41
2024-01-16T16:00:21.163Z,77619.44
2024-01-16T16:02:50.347Z,77629.56
2024-01-16T16:05:18.135Z,77627.53
2024-01-16T16:07:44.896Z,77623.50
2024-01-16T16:10:11.490Z,77617.44
2024-01-16T16:12:38.805Z,77625.50
2024-01-16T16:15:05.617Z,77653.78
2024-01-16T16:17:32.443Z,77627.53
2024-01-16T16:19:59.128Z,77635.59
2024-01-16T16:22:26.166Z,77641.66
2024-01-16T16:24:53.390Z,77655.81
2024-01-16T16:27:25.245Z,77637.63
2024-01-16T16:29:55.264Z,77637.63
2024-01-16T16:32:22.192Z,77651.75
2024-01-16T16:34:50.058Z,77641.66
2024-01-16T16:37:17.795Z,77653.78
2024-01-16T16:39:44.410Z,77641.66
2024-01-16T16:42:12.629Z,77655.81
2024-01-16T16:44:39.299Z,77653.78
2024-01-16T16:47:05.960Z,77647.72
2024-01-16T16:49:32.635Z,77653.78
2024-01-16T16:51:59.257Z,77647.72
2024-01-16T16:54:27.029Z,77629.56
2024-01-16T16:56:55.779Z,77643.69
2024-01-16T16:59:22.833Z,77639.66
2024-01-16T17:01:49.661Z,77637.63
2024-01-16T17:04:16.340Z,77647.72
2024-01-16T17:06:43.163Z,77653.78
2024-01-16T17:09:12.764Z,77661.88
2024-01-16T17:11:40.350Z,77659.84
2024-01-16T17:14:07.110Z,77669.94
2024-01-16T17:16:33.832Z,77684.06
2024-01-16T17:19:00.674Z,77696.19
2024-01-16T17:21:28.107Z,77700.22
2024-01-16T17:23:54.864Z,77714.38
2024-01-16T17:26:21.797Z,77720.44
2024-01-16T17:28:48.392Z,77728.50
2024-01-16T17:31:14.990Z,77730.53
2024-01-16T17:33:44.212Z,77728.50
2024-01-16T17:36:14.144Z,77726.47
2024-01-16T17:38:41.258Z,77734.56
2024-01-16T17:41:07.976Z,77732.53
2024-01-16T17:43:34.784Z,77728.50
2024-01-16T17:46:01.409Z,77746.69
2024-01-16T17:48:29.078Z,77740.63
2024-01-16T17:50:56.408Z,77748.69
2024-01-16T17:53:23.284Z,77742.63
2024-01-16T17:55:49.861Z,77740.63
2024-01-16T17:58:16.874Z,77744.66
2024-01-16T18:00:43.806Z,77742.63
2024-01-16T18:03:24.242Z,77744.66
2024-01-16T18:06:00.682Z,77736.59
2024-01-16T18:08:27.455Z,77748.69
2024-01-16T18:10:55.689Z,77760.81
2024-01-16T18:13:23.434Z,77764.84
2024-01-16T18:15:50.067Z,77783.03
2024-01-16T18:18:18.451Z,77768.88
2024-01-16T18:20:45.470Z,77781.00
2024-01-16T18:23:12.653Z,77787.06
2024-01-16T18:25:39.271Z,77787.06
2024-01-16T18:28:06.242Z,77768.88
2024-01-16T18:30:34.409Z,77787.06
2024-01-16T18:33:02.229Z,77776.97
2024-01-16T18:35:29.604Z,77772.94
2024-01-16T18:37:56.589Z,77766.88
2024-01-16T18:40:24.637Z,77776.97
2024-01-16T18:42:51.459Z,77762.84
2024-01-16T18:45:19.178Z,77768.88
2024-01-16T18:47:46.276Z,77764.84
2024-01-16T18:50:13.888Z,77766.88
2024-01-16T18:52:41.400Z,77766.88
2024-01-16T18:55:12.200Z,77766.88
2024-01-16T18:57:40.564Z,77754.75
2024-01-16T19:00:14.444Z,77764.84
2024-01-16T19:02:45.412Z,77766.88
2024-01-16T19:05:13.142Z,77764.84
2024-01-16T19:07:44.175Z,77758.78
2024-01-16T19:10:13.880Z,77762.84
2024-01-16T19:12:44.688Z,77762.84
2024-01-16T19:15:19.171Z,77752.72
2024-01-16T19:17:50.149Z,77756.78
2024-01-16T19:20:17.509Z,77756.78
2024-01-16T19:22:45.839Z,77756.78
2024-01-16T19:25:12.928Z,77764.84
2024-01-16T19:27:42.952Z,77752.72
2024-01-16T19:30:15.036Z,77758.78
2024-01-16T19:32:45.542Z,77766.88
2024-01-16T19:35:13.684Z,77770.91
2024-01-16T19:37:44.229Z,77754.75
2024-01-16T19:40:17.552Z,77760.81
2024-01-16T19:42:44.717Z,77762.84
2024-01-16T19:45:12.499Z,77762.84
2024-01-16T19:47:41.657Z,77770.91
2024-01-16T19:50:20.415Z,77776.97
2024-01-16T19:52:50.773Z,77772.94
2024-01-16T19:55:20.303Z,77774.94
2024-01-16T19:57:47.130Z,77783.03
2024-01-16T20:00:14.723Z,77779.00
2024-01-16T20:02:43.920Z,77776.97
2024-01-16T20:05:10.832Z,77783.03
2024-01-16T20:07:38.549Z,77783.03
2024-01-16T20:10:07.900Z,77785.03
2024-01-16T20:12:40.044Z,77781.00
2024-01-16T20:15:20.704Z,77779.00
2024-01-16T20:17:47.532Z,77789.09
2024-01-16T20:20:14.926Z,77803.22
2024-01-16T20:22:42.108Z,77795.16
2024-01-16T20:25:15.222Z,77811.31
2024-01-16T20:27:42.588Z,77817.34
2024-01-16T20:30:10.336Z,77807.25
2024-01-16T20:32:41.034Z,77813.31
2024-01-16T20:35:11.339Z,77807.25
2024-01-16T20:37:38.066Z,77809.28
2024-01-16T20:40:05.969Z,77827.47
2024-01-16T20:42:33.244Z,77811.31
2024-01-16T20:45:00.053Z,77807.25
2024-01-16T20:47:28.738Z,77813.31
2024-01-16T20:49:55.548Z,77815.34
2024-01-16T20:52:22.852Z,77811.31
2024-01-16T20:54:49.500Z,77809.28
2024-01-16T20:57:16.086Z,77809.28
2024-01-16T20:59:44.181Z,77807.25
2024-01-16T21:02:11.088Z,77805.25
2024-01-16T21:04:37.821Z,77795.16
2024-01-16T21:07:05.030Z,77789.09
2024-01-16T21:09:32.155Z,77781.00
2024-01-16T21:12:00.767Z,77785.03
2024-01-16T21:14:28.682Z,77768.88
2024-01-16T21:16:55.300Z,77774.94
2024-01-16T21:19:24.619Z,77776.97
2024-01-16T21:21:58.370Z,77774.94
2024-01-16T21:24:25.109Z,77772.94
2024-01-16T21:26:52.126Z,77768.88
2024-01-16T21:29:19.796Z,77752.72
2024-01-16T21:31:47.660Z,77752.72
2024-01-16T21:34:16.217Z,77752.72
2024-01-16T21:36:43.354Z,77740.63
2024-01-16T21:39:13.300Z,77740.63
2024-01-16T21:41:40.790Z,77746.69
2024-01-16T21:44:07.404Z,77738.59
2024-01-16T21:46:33.971Z,77730.53
2024-01-16T21:49:01.595Z,77728.50
2024-01-16T21:51:28.369Z,77732.53
2024-01-16T21:53:55.116Z,77726.47
2024-01-16T21:56:21.722Z,77728.50
2024-01-16T21:58:48.438Z,77728.50
2024-01-16T22:01:14.972Z,77720.44
2024-01-16T22:03:41.512Z,77712.34
2024-01-16T22:06:08.985Z,77700.22
2024-01-16T22:08:35.624Z,77712.34
2024-01-16T22:11:03.230Z,77712.34
2024-01-16T22:13:29.797Z,77716.38
2024-01-16T22:15:56.411Z,77716.38
2024-01-16T22:18:23.263Z,77710.31
2024-01-16T22:20:50.249Z,77714.38
2024-01-16T22:23:16.863Z,77704.28
2024-01-16T22:25:44.174Z,77718.41
2024-01-16T22:28:13.411Z,77708.31
2024-01-16T22:30:40.511Z,77720.44
2024-01-16T22:33:07.528Z,77714.38
2024-01-16T22:35:34.270Z,77712.34
2024-01-16T22:38:00.890Z,77722.44
2024-01-16T22:40:27.608Z,77722.44
2024-01-16T22:42:54.268Z,77728.50
2024-01-16T22:45:21.347Z,77726.47
2024-01-16T22:47:48.184Z,77724.47
2024-01-16T22:50:14.952Z,77732.53
2024-01-16T22:52:41.877Z,77724.47
2024-01-16T22:55:09.319Z,77722.44
2024-01-16T22:57:36.107Z,77726.47
2024-01-16T23:00:02.908Z,77722.44
2024-01-16T23:02:30.106Z,77718.41
2024-01-16T23:04:56.886Z,77706.28
2024-01-16T23:07:23.562Z,77690.13
2024-01-16T23:09:50.253Z,77710.31
2024-01-16T23:12:16.893Z,77704.28
2024-01-16T23:14:44.495Z,77692.16
2024-01-16T23:17:13.209Z,77716.38
2024-01-16T23:19:40.228Z,77714.38
2024-01-16T23:22:08.548Z,77714.38
2024-01-16T23:24:35.187Z,77710.31
2024-01-16T23:27:01.855Z,77718.41
2024-01-16T23:29:30.857Z,77720.44
2024-01-16T23:31:57.608Z,77712.34
2024-01-16T23:34:24.292Z,77728.50
2024-01-16T23:36:50.934Z,77738.59
2024-01-16T23:39:17.568Z,77734.56
2024-01-16T23:41:45.961Z,77728.50
2024-01-16T23:44:12.721Z,77736.59
2024-01-16T23:46:40.036Z,77716.38
2024-01-16T23:49:06.938Z,77724.47
2024-01-16T23:51:33.755Z,77736.59
2024-01-16T23:54:03.364Z,77724.47
2024-01-16T23:56:30.162Z,77726.47
2024-01-16T23:58:56.759Z,77720.44
